Terminal Aerodrome Forecast
Issued by NWS Wilmington, OH

Current Version | Previous Version | Text Only | Print | Product List | Glossary Off
Versions: 1 2 3 4 5 6 7 8 9 10 11 12 13 14 15 16 17

952
FTUS41 KILN 171135
TAFILN
TAF
KILN 171135Z 1712/1812 20006KT P6SM BKN120
     FM171500 20008KT P6SM VCTS SCT050CB BKN120
     FM171700 21012G20KT P6SM -SHRA VCTS BKN040CB
     FM180300 22008KT P6SM BKN120
     FM180600 24004KT 4SM BR SCT015=

USA.gov is the U.S. government's official web portal to all federal, state and local government web resources and services.